Abernathy, TX

4:23 AM CST on December 20, 2014 (GMT -0600)
WT_Meso Abernathy 5NE | Change Station
CLOSE
Current Station
Personal Weather Station
Location: Petersburg, TX
Elevation: 3333 ft
Nearby Weather Stations

Elev 3333 ft 33.88 °N, 101.76 °W | Updated 28 minutes ago

Overcast
Overcast
36 °F
Feels Like 29 °F
N
10
Wind Variable Wind from SW
Gusts 13.0 mph

Today
High -- | Low -- °F
--% Chance of Precip.
Yesterday
High -- | Low -- °F
Precip. -- in
7:48 AM 5:42 PM
Waning Crescent, 3% visible
Pressure 30.15 in
Visibility 4.0 miles
Clouds Overcast 400 ft
Windchill 29 °F
Dew Point 36 °F
Humidity 100%
Rainfall -999.00 in
Snow Depth Not available.
UV 0 out of 12
Pollen 7.30 out of 12
Air Quality Not available.
Flu Activity Not available.
METAR KLBB 200953Z 22008KT 4SM BR OVC004 03/02 A3015 RMK AO2 SLP208 T00330022

More Conditions Fewer Conditions

Pressure 30.15 in
Visibility 4.0 miles
Clouds Overcast 400 ft
Windchill 29 °F
Dew Point 36 °F
Humidity 100%
Rainfall -999.00 in
Snow Depth Not available.
UV 0 out of 12
Pollen 7.30 out of 12
Air Quality Not available.
Flu Activity Not available.
METAR KLBB 200953Z 22008KT 4SM BR OVC004 03/02 A3015 RMK AO2 SLP208 T00330022

More Conditions Fewer Conditions

10-Day Weather Forecast

Almanac

Astronomy

Dec. 20, 2014 Rise Set
Actual Time
Civil Twilight
Nautical Twilight
Astronomical Twilight
Moon
Length of Visible Light
Length of Day
Tomorrow will be .
, % of the Moon is Illuminated

Today's Extremes

State Highs State Lows

Community

WunderPhotos

Upload Photos

1,779,150 photos uploaded!

WunderBlogs® & News

Nearby

Air Quality

  Air Quality AQ Index Pollutant
Not available.

Snow Depth

Station Depth Elevation

Earthquake Activity

City Distance Mag. Time & Date
Minimum magnitude displayed is 2.5.

Coastal Water Temperatures

Place Temperature

Nearby Weather Stations